Time;durP1;ratioP1;P1;durP2;ratioP2;P2;SDS_P1;SDS_P2;PMS_P1;PMS_P2;Temp;Humidity;BMP_temperature;BMP_pressure;BME280_temperature;BME280_humidity;BME280_pressure;Samples;Min_cycle;Max_cycle;Signal;HPM_P1;HPM_P2
2022/06/22 00:00:39;;;;;;;9.57;6.20;;;;;;;;;;4451047;32;20388;-59
2022/06/22 00:03:09;;;;;;;8.90;6.80;;;;;;;;;;4451323;32;20224;-59
2022/06/22 00:05:44;;;;;;;16.20;6.55;;;;;;;;;;4451200;32;20213;-58
2022/06/22 00:08:16;;;;;;;12.65;7.22;;;;;;;;;;4451448;32;20691;-59
2022/06/22 00:10:55;;;;;;;13.27;8.02;;;;;;;;;;4435786;32;20229;-58
2022/06/22 00:13:24;;;;;;;12.23;7.12;;;;;;;;;;4435769;32;20233;-58
2022/06/22 00:16:02;;;;;;;12.20;7.35;;;;;;;;;;4435620;32;20301;-60
2022/06/22 00:18:30;;;;;;;11.63;6.97;;;;;;;;;;4435793;32;20239;-58
2022/06/22 00:20:59;;;;;;;9.52;6.70;;;;;;;;;;4435121;32;20355;-59
2022/06/22 00:23:41;;;;;;;13.60;7.47;;;;;;;;;;4435922;32;20235;-59
2022/06/22 00:26:14;;;;;;;14.45;7.37;;;;;;;;;;4435161;32;20234;-59
2022/06/22 00:29:04;;;;;;;18.48;8.73;;;;;;;;;;4435665;32;20217;-59
2022/06/22 00:31:36;;;;;;;8.68;6.20;;;;;;;;;;4435625;32;20229;-59
2022/06/22 00:34:10;;;;;;;13.43;6.93;;;;;;;;;;4435420;32;20324;-59
2022/06/22 00:37:03;;;;;;;21.45;6.95;;;;;;;;;;4436049;32;20536;-59
2022/06/22 00:39:28;;;;;;;10.77;6.05;;;;;;;;;;4434350;32;20353;-59
2022/06/22 00:42:00;;;;;;;13.27;6.15;;;;;;;;;;4435199;32;20320;-59
2022/06/22 00:44:31;;;;;;;9.68;6.30;;;;;;;;;;4450656;32;20224;-59
2022/06/22 00:47:05;;;;;;;14.05;6.72;;;;;;;;;;4449462;32;20327;-58
2022/06/22 00:49:31;;;;;;;11.90;7.22;;;;;;;;;;4450460;32;20259;-59
2022/06/22 00:52:04;;;;;;;8.05;6.53;;;;;;;;;;4450588;32;20256;-59
2022/06/22 00:54:33;;;;;;;10.13;7.20;;;;;;;;;;4450717;32;20799;-60
2022/06/22 00:57:02;;;;;;;12.95;7.30;;;;;;;;;;4450443;32;20626;-59
2022/06/22 00:59:40;;;;;;;12.65;6.50;;;;;;;;;;4435959;32;20243;-60
2022/06/22 01:02:38;;;;;;;9.65;6.55;;;;;;;;;;4434998;32;20288;-59
2022/06/22 01:05:22;;;;;;;9.00;6.43;;;;;;;;;;4434928;32;20243;-59
2022/06/22 01:07:59;;;;;;;10.85;7.12;;;;;;;;;;4434824;32;20220;-60
2022/06/22 01:10:44;;;;;;;12.30;6.97;;;;;;;;;;4434593;32;20271;-59
2022/06/22 01:13:23;;;;;;;15.98;6.20;;;;;;;;;;4435076;32;20624;-59
2022/06/22 01:16:03;;;;;;;13.40;6.55;;;;;;;;;;4435189;32;20200;-59
2022/06/22 01:18:33;;;;;;;10.27;6.47;;;;;;;;;;4434980;32;20401;-59
2022/06/22 01:21:04;;;;;;;9.70;6.78;;;;;;;;;;4434397;32;20247;-60
2022/06/22 01:24:06;;;;;;;8.98;6.20;;;;;;;;;;4435023;32;20224;-58
2022/06/22 01:27:09;;;;;;;15.95;6.45;;;;;;;;;;4434681;32;20266;-58
2022/06/22 01:29:44;;;;;;;14.10;6.32;;;;;;;;;;4433566;32;20220;-59
2022/06/22 01:32:19;;;;;;;11.10;6.25;;;;;;;;;;4434605;32;20212;-58
2022/06/22 01:34:47;;;;;;;9.65;6.70;;;;;;;;;;4434542;32;20574;-58
2022/06/22 01:37:23;;;;;;;8.65;5.75;;;;;;;;;;4444950;32;20303;-59
2022/06/22 01:39:48;;;;;;;14.50;6.35;;;;;;;;;;4449887;32;20207;-60
2022/06/22 01:42:23;;;;;;;8.27;6.43;;;;;;;;;;4449691;32;20676;-60
2022/06/22 01:44:56;;;;;;;13.40;6.62;;;;;;;;;;4450173;32;20731;-59
2022/06/22 01:47:41;;;;;;;9.65;7.65;;;;;;;;;;4449872;32;20244;-59
2022/06/22 01:50:17;;;;;;;14.35;7.90;;;;;;;;;;4449787;32;20200;-59
2022/06/22 01:53:01;;;;;;;12.88;6.53;;;;;;;;;;4449596;32;20252;-60
2022/06/22 01:55:56;;;;;;;10.73;6.00;;;;;;;;;;4436899;32;20227;-59
2022/06/22 01:58:21;;;;;;;15.57;7.18;;;;;;;;;;4410204;32;20233;-59
2022/06/22 02:01:00;;;;;;;15.85;6.85;;;;;;;;;;4434400;32;20363;-59
2022/06/22 02:03:34;;;;;;;8.20;6.00;;;;;;;;;;4434571;32;20283;-58
2022/06/22 02:07:44;;;;;;;15.40;7.43;;;;;;;;;;4433871;32;20294;-58
2022/06/22 02:08:54;;;;;;;7.95;6.80;;;;;;;;;;4436591;32;20667;-59
2022/06/22 02:11:23;;;;;;;10.90;7.10;;;;;;;;;;4449786;32;20240;-59
2022/06/22 02:13:57;;;;;;;16.02;7.15;;;;;;;;;;4449777;32;20228;-59
2022/06/22 02:16:31;;;;;;;13.23;7.57;;;;;;;;;;4449599;32;20217;-59
2022/06/22 02:18:57;;;;;;;13.68;7.20;;;;;;;;;;4449606;32;20223;-58
2022/06/22 02:21:26;;;;;;;7.62;6.82;;;;;;;;;;4449158;32;20698;-59
2022/06/22 02:24:13;;;;;;;12.50;6.28;;;;;;;;;;4449637;32;20605;-60
2022/06/22 02:26:54;;;;;;;9.55;7.12;;;;;;;;;;4447892;32;20290;-59
2022/06/22 02:29:30;;;;;;;12.65;7.68;;;;;;;;;;4449574;32;20246;-59
2022/06/22 02:31:59;;;;;;;10.73;6.75;;;;;;;;;;4449208;32;20333;-59
2022/06/22 02:34:26;;;;;;;12.07;6.93;;;;;;;;;;4449202;32;20552;-59
2022/06/22 02:36:53;;;;;;;7.57;6.70;;;;;;;;;;4449344;32;20752;-58
2022/06/22 02:39:22;;;;;;;14.75;6.03;;;;;;;;;;4449712;32;20776;-59
2022/06/22 02:44:35;;;;;;;13.38;6.70;;;;;;;;;;4434177;32;20311;-58
2022/06/22 02:47:15;;;;;;;9.48;6.60;;;;;;;;;;4433662;32;20553;-58
2022/06/22 02:49:46;;;;;;;8.32;6.18;;;;;;;;;;4433659;32;20212;-59
2022/06/22 02:52:15;;;;;;;9.32;7.10;;;;;;;;;;4432601;32;20702;-58
2022/06/22 02:54:49;;;;;;;9.32;7.75;;;;;;;;;;4434028;32;20248;-59
2022/06/22 02:57:19;;;;;;;14.38;8.27;;;;;;;;;;4433810;32;20251;-58
2022/06/22 02:59:46;;;;;;;8.57;7.18;;;;;;;;;;4435479;32;20227;-59
2022/06/22 03:02:12;;;;;;;10.45;6.95;;;;;;;;;;4448533;32;20236;-59
2022/06/22 03:04:40;;;;;;;8.88;7.10;;;;;;;;;;4448795;32;20269;-59
2022/06/22 03:07:06;;;;;;;9.93;6.62;;;;;;;;;;4449182;32;20318;-61
2022/06/22 03:09:32;;;;;;;10.57;8.32;;;;;;;;;;4448785;32;20250;-59
2022/06/22 03:11:59;;;;;;;13.35;6.78;;;;;;;;;;4448102;32;20402;-60
2022/06/22 03:14:36;;;;;;;10.38;7.20;;;;;;;;;;4448236;32;20240;-59
2022/06/22 03:17:12;;;;;;;14.63;8.60;;;;;;;;;;4449022;32;20617;-59
2022/06/22 03:19:48;;;;;;;13.32;8.07;;;;;;;;;;4448869;32;20204;-59
2022/06/22 03:22:38;;;;;;;15.00;7.20;;;;;;;;;;4449168;32;20240;-58
2022/06/22 03:25:24;;;;;;;14.07;7.32;;;;;;;;;;4447508;32;20300;-58
2022/06/22 03:27:59;;;;;;;10.60;7.53;;;;;;;;;;4448775;32;20305;-58
2022/06/22 03:30:56;;;;;;;12.02;7.00;;;;;;;;;;4449077;32;20279;-59
2022/06/22 03:33:30;;;;;;;13.43;7.50;;;;;;;;;;4446855;32;20275;-59
2022/06/22 03:36:01;;;;;;;12.23;7.78;;;;;;;;;;4451191;32;20787;-59
2022/06/22 03:39:01;;;;;;;8.20;7.37;;;;;;;;;;4450322;32;20296;-59
2022/06/22 03:41:30;;;;;;;8.30;6.85;;;;;;;;;;4451903;32;20302;-60
2022/06/22 03:44:03;;;;;;;12.07;8.40;;;;;;;;;;4451941;32;20291;-58
2022/06/22 03:46:38;;;;;;;10.68;8.07;;;;;;;;;;4451326;32;20224;-59
2022/06/22 03:49:26;;;;;;;29.65;21.75;;;;;;;;;;4450946;32;20737;-59
2022/06/22 03:52:16;;;;;;;28.27;13.43;;;;;;;;;;4451318;32;20284;-60
2022/06/22 03:54:50;;;;;;;21.80;10.75;;;;;;;;;;4451226;32;20232;-59
2022/06/22 03:57:21;;;;;;;13.25;9.35;;;;;;;;;;4451216;32;20307;-59
2022/06/22 03:59:47;;;;;;;15.25;9.02;;;;;;;;;;4451402;32;20402;-59
2022/06/22 04:02:14;;;;;;;12.50;8.50;;;;;;;;;;4451471;32;20251;-59
2022/06/22 04:04:40;;;;;;;12.80;8.65;;;;;;;;;;4450925;32;20220;-59
2022/06/22 04:07:13;;;;;;;18.35;8.13;;;;;;;;;;4450693;32;20319;-61
2022/06/22 04:09:51;;;;;;;16.20;11.60;;;;;;;;;;4436702;32;20599;-59
2022/06/22 04:12:32;;;;;;;21.73;15.10;;;;;;;;;;4435793;32;20228;-59
2022/06/22 04:15:19;;;;;;;19.65;13.45;;;;;;;;;;4434648;32;20318;-59
2022/06/22 04:17:51;;;;;;;18.12;12.82;;;;;;;;;;4435826;32;20247;-58
2022/06/22 04:20:17;;;;;;;16.42;12.50;;;;;;;;;;4435524;32;20217;-58
2022/06/22 04:22:45;;;;;;;14.93;9.90;;;;;;;;;;4435128;32;20749;-59
2022/06/22 04:25:28;;;;;;;13.07;9.85;;;;;;;;;;4435591;32;20314;-58
2022/06/22 04:27:56;;;;;;;14.70;9.93;;;;;;;;;;4435045;32;20320;-59
2022/06/22 04:30:26;;;;;;;19.25;10.85;;;;;;;;;;4435609;32;20251;-58
2022/06/22 04:33:10;;;;;;;17.55;10.38;;;;;;;;;;4435195;32;20224;-59
2022/06/22 04:35:36;;;;;;;15.60;10.23;;;;;;;;;;4435232;32;20303;-59
2022/06/22 04:38:16;;;;;;;17.60;11.70;;;;;;;;;;4448107;32;20270;-59
2022/06/22 04:41:04;;;;;;;24.75;9.52;;;;;;;;;;4450561;32;20287;-58
2022/06/22 04:43:32;;;;;;;12.57;10.07;;;;;;;;;;4450348;32;20242;-59
2022/06/22 04:45:57;;;;;;;20.17;10.02;;;;;;;;;;4450512;32;20236;-58
2022/06/22 04:48:46;;;;;;;18.62;9.52;;;;;;;;;;4450122;32;20583;-58
2022/06/22 04:51:18;;;;;;;20.30;10.35;;;;;;;;;;4450405;32;20414;-58
2022/06/22 04:53:52;;;;;;;20.23;12.25;;;;;;;;;;4450385;32;20266;-58
2022/06/22 04:56:49;;;;;;;22.20;10.32;;;;;;;;;;4450138;32;20215;-58
2022/06/22 04:59:17;;;;;;;15.20;10.60;;;;;;;;;;4447703;32;20312;-57
2022/06/22 05:01:54;;;;;;;12.20;9.50;;;;;;;;;;4449782;32;20229;-59
2022/06/22 05:04:32;;;;;;;11.75;9.27;;;;;;;;;;4446319;32;20208;-59
2022/06/22 05:07:13;;;;;;;15.00;9.70;;;;;;;;;;4434105;32;20263;-58
2022/06/22 05:09:46;;;;;;;21.98;10.52;;;;;;;;;;4433954;32;20545;-59
2022/06/22 05:12:26;;;;;;;13.32;10.07;;;;;;;;;;4434049;32;20224;-59
2022/06/22 05:14:55;;;;;;;19.23;9.15;;;;;;;;;;4433332;32;20684;-58
2022/06/22 05:17:26;;;;;;;13.85;9.40;;;;;;;;;;4434027;32;20228;-58
2022/06/22 05:20:15;;;;;;;11.90;9.20;;;;;;;;;;4434265;32;20661;-58
2022/06/22 05:22:40;;;;;;;14.73;9.68;;;;;;;;;;4434260;32;20248;-58
2022/06/22 05:25:09;;;;;;;18.95;10.30;;;;;;;;;;4434197;32;20279;-59
2022/06/22 05:28:03;;;;;;;17.52;10.00;;;;;;;;;;4434203;32;20249;-57
2022/06/22 05:30:35;;;;;;;19.17;9.32;;;;;;;;;;4433903;32;20237;-58
2022/06/22 05:33:07;;;;;;;18.37;8.98;;;;;;;;;;4432453;32;20263;-57
2022/06/22 05:35:36;;;;;;;14.38;9.20;;;;;;;;;;4433203;32;20238;-58
2022/06/22 05:38:06;;;;;;;15.63;9.15;;;;;;;;;;4445318;32;20263;-59
2022/06/22 05:40:32;;;;;;;17.37;10.32;;;;;;;;;;4448505;32;20700;-58
2022/06/22 05:42:58;;;;;;;14.23;10.13;;;;;;;;;;4447030;32;20270;-58
2022/06/22 05:45:29;;;;;;;20.42;10.85;;;;;;;;;;4446025;32;20371;-60
2022/06/22 05:47:56;;;;;;;19.40;9.18;;;;;;;;;;4446678;32;20260;-58
2022/06/22 05:50:54;;;;;;;14.87;9.98;;;;;;;;;;4447336;32;20288;-58
2022/06/22 05:53:39;;;;;;;15.93;9.73;;;;;;;;;;4413766;32;20272;-58
2022/06/22 05:56:14;;;;;;;19.98;9.40;;;;;;;;;;4447441;32;20220;-58
2022/06/22 05:58:55;;;;;;;23.98;10.02;;;;;;;;;;4445575;32;20216;-58
2022/06/22 06:01:27;;;;;;;23.38;11.12;;;;;;;;;;4447129;32;20236;-59
2022/06/22 06:04:03;;;;;;;18.77;10.50;;;;;;;;;;4447053;32;20238;-59
2022/06/22 06:06:34;;;;;;;17.48;11.63;;;;;;;;;;4446925;32;20215;-58
2022/06/22 06:09:03;;;;;;;22.37;10.27;;;;;;;;;;4446120;32;20235;-57
2022/06/22 06:11:46;;;;;;;15.57;9.13;;;;;;;;;;4447258;32;20284;-58
2022/06/22 06:14:20;;;;;;;16.62;10.20;;;;;;;;;;4448698;32;20284;-58
2022/06/22 06:16:54;;;;;;;22.15;9.68;;;;;;;;;;4448139;32;20287;-58
2022/06/22 06:19:24;;;;;;;14.98;9.50;;;;;;;;;;4448526;32;20518;-58
2022/06/22 06:21:54;;;;;;;21.30;10.95;;;;;;;;;;4448840;32;20277;-59
2022/06/22 06:24:27;;;;;;;14.40;8.68;;;;;;;;;;4449357;32;20251;-57
2022/06/22 06:29:43;;;;;;;17.60;8.80;;;;;;;;;;4448702;32;20390;-57
2022/06/22 06:32:28;;;;;;;13.15;7.43;;;;;;;;;;4448716;32;20387;-58
2022/06/22 06:35:04;;;;;;;18.87;9.07;;;;;;;;;;4448462;32;20238;-58
2022/06/22 06:37:55;;;;;;;21.87;8.95;;;;;;;;;;4448647;32;20899;-58
2022/06/22 06:40:43;;;;;;;12.43;7.68;;;;;;;;;;4419605;32;20280;-58
2022/06/22 06:43:24;;;;;;;13.90;8.02;;;;;;;;;;4448148;32;20320;-59
2022/06/22 06:45:52;;;;;;;14.27;7.50;;;;;;;;;;4448417;32;20217;-58
2022/06/22 06:48:25;;;;;;;8.95;7.65;;;;;;;;;;4436699;32;20220;-59
2022/06/22 06:50:54;;;;;;;14.30;10.32;;;;;;;;;;4448485;32;20829;-58
2022/06/22 06:54:02;;;;;;;47.33;11.02;;;;;;;;;;4448276;32;20677;-58
2022/06/22 06:56:38;;;;;;;14.35;11.18;;;;;;;;;;4399395;32;20230;-59
2022/06/22 06:59:13;;;;;;;14.73;9.88;;;;;;;;;;4400489;32;20209;-59
2022/06/22 07:01:44;;;;;;;13.15;9.73;;;;;;;;;;4419803;32;20224;-58
2022/06/22 07:04:28;;;;;;;22.95;10.07;;;;;;;;;;4430779;32;20237;-57
2022/06/22 07:07:04;;;;;;;15.95;10.32;;;;;;;;;;4431094;32;20244;-59
2022/06/22 07:09:35;;;;;;;16.27;8.85;;;;;;;;;;4444064;32;20300;-58
2022/06/22 07:12:21;;;;;;;17.45;9.48;;;;;;;;;;4451068;32;20236;-58
2022/06/22 07:14:46;;;;;;;14.35;9.35;;;;;;;;;;4451372;32;20313;-58
2022/06/22 07:17:17;;;;;;;16.83;9.45;;;;;;;;;;4451154;32;20656;-58
2022/06/22 07:19:52;;;;;;;10.48;8.13;;;;;;;;;;4449721;32;20278;-58
2022/06/22 07:23:03;;;;;;;10.88;8.98;;;;;;;;;;4449860;32;20220;-58
2022/06/22 07:25:42;;;;;;;15.88;8.00;;;;;;;;;;4441016;32;20307;-57
2022/06/22 07:28:44;;;;;;;14.65;8.55;;;;;;;;;;4450702;32;20316;-57
2022/06/22 07:31:26;;;;;;;12.32;7.57;;;;;;;;;;4418068;32;20216;-57
2022/06/22 07:34:00;;;;;;;18.75;6.97;;;;;;;;;;4450383;32;20259;-58
2022/06/22 07:36:37;;;;;;;16.45;8.38;;;;;;;;;;4450594;32;20378;-57
2022/06/22 07:39:22;;;;;;;14.07;8.00;;;;;;;;;;4450143;32;20204;-58
2022/06/22 07:41:47;;;;;;;18.15;8.35;;;;;;;;;;4450708;32;20220;-58
2022/06/22 07:44:24;;;;;;;13.93;8.05;;;;;;;;;;4450273;32;20205;-57
2022/06/22 07:47:06;;;;;;;15.82;8.38;;;;;;;;;;4449061;32;20336;-57
2022/06/22 07:49:36;;;;;;;10.05;7.30;;;;;;;;;;4449845;32;20629;-57
2022/06/22 07:52:06;;;;;;;10.90;7.87;;;;;;;;;;4449573;32;20224;-57
2022/06/22 07:54:51;;;;;;;11.45;7.40;;;;;;;;;;4450441;32;20208;-58
2022/06/22 07:57:47;;;;;;;18.25;7.37;;;;;;;;;;4450126;32;20262;-58
2022/06/22 08:00:17;;;;;;;9.65;8.05;;;;;;;;;;4449283;32;20212;-62
2022/06/22 08:02:53;;;;;;;17.08;8.07;;;;;;;;;;4448673;32;20584;-58
2022/06/22 08:05:26;;;;;;;13.93;8.75;;;;;;;;;;4448327;32;20256;-58
2022/06/22 08:08:18;;;;;;;13.18;7.60;;;;;;;;;;4447332;32;20758;-59
2022/06/22 08:10:51;;;;;;;12.45;7.78;;;;;;;;;;4448119;32;20205;-58
2022/06/22 08:13:33;;;;;;;19.30;8.45;;;;;;;;;;4448387;32;20561;-58
2022/06/22 08:16:05;;;;;;;14.00;8.52;;;;;;;;;;4448228;32;20254;-58
2022/06/22 08:18:31;;;;;;;75.45;13.95;;;;;;;;;;4447286;32;20475;-58
2022/06/22 08:20:58;;;;;;;14.87;9.35;;;;;;;;;;4446983;32;20326;-58
2022/06/22 08:23:27;;;;;;;15.82;9.25;;;;;;;;;;4446406;32;20295;-60
2022/06/22 08:25:53;;;;;;;15.82;9.63;;;;;;;;;;4448505;32;20196;-58
2022/06/22 08:28:21;;;;;;;13.35;8.73;;;;;;;;;;4437895;32;20311;-58
2022/06/22 08:30:53;;;;;;;11.43;8.98;;;;;;;;;;4448359;32;20228;-59
2022/06/22 08:33:37;;;;;;;14.10;8.50;;;;;;;;;;4447710;32;20223;-58
2022/06/22 08:36:30;;;;;;;18.70;9.57;;;;;;;;;;4447910;32;20227;-59
2022/06/22 08:39:07;;;;;;;21.98;9.38;;;;;;;;;;4447903;32;20375;-57
2022/06/22 08:42:01;;;;;;;17.48;9.10;;;;;;;;;;4448613;32;20652;-58
2022/06/22 08:44:49;;;;;;;15.10;9.60;;;;;;;;;;4448250;32;20549;-59
2022/06/22 08:47:39;;;;;;;15.52;9.23;;;;;;;;;;4449065;32;20534;-58
2022/06/22 08:50:51;;;;;;;19.33;10.05;;;;;;;;;;4446055;32;20240;-58
2022/06/22 08:53:58;;;;;;;11.25;8.82;;;;;;;;;;4447762;32;20306;-58
2022/06/22 08:56:27;;;;;;;18.15;9.65;;;;;;;;;;4384039;32;20257;-57
2022/06/22 08:59:16;;;;;;;21.48;10.48;;;;;;;;;;4438579;32;20816;-58
2022/06/22 09:01:54;;;;;;;16.40;9.70;;;;;;;;;;4449473;32;20668;-59
2022/06/22 09:04:47;;;;;;;20.83;11.43;;;;;;;;;;4449717;32;20247;-59
2022/06/22 09:07:21;;;;;;;17.20;10.25;;;;;;;;;;4449534;32;20231;-58
2022/06/22 09:09:59;;;;;;;14.18;10.38;;;;;;;;;;4449419;32;20334;-59
2022/06/22 09:12:27;;;;;;;17.45;10.88;;;;;;;;;;4449736;32;20237;-58
2022/06/22 09:15:37;;;;;;;12.50;10.55;;;;;;;;;;4450069;32;20228;-58
2022/06/22 09:18:02;;;;;;;16.90;10.65;;;;;;;;;;4385643;32;20329;-58
2022/06/22 09:20:36;;;;;;;12.73;10.63;;;;;;;;;;4385621;32;20531;-58
2022/06/22 09:23:29;;;;;;;15.40;11.02;;;;;;;;;;4420916;32;20228;-58
2022/06/22 09:26:27;;;;;;;19.20;9.57;;;;;;;;;;4449024;32;20293;-58
2022/06/22 09:29:19;;;;;;;12.95;9.25;;;;;;;;;;4444487;32;20342;-58
2022/06/22 09:31:58;;;;;;;23.42;9.85;;;;;;;;;;4448018;32;20281;-58
2022/06/22 09:34:57;;;;;;;19.33;9.70;;;;;;;;;;4449009;32;20234;-57
2022/06/22 09:37:55;;;;;;;15.68;10.02;;;;;;;;;;4442267;32;20224;-60
2022/06/22 09:40:23;;;;;;;20.02;10.10;;;;;;;;;;4440282;32;20634;-58
2022/06/22 09:43:10;;;;;;;12.48;9.88;;;;;;;;;;4448725;32;20253;-58
2022/06/22 09:46:12;;;;;;;12.70;9.75;;;;;;;;;;4445447;32;20276;-58
2022/06/22 09:48:49;;;;;;;18.73;11.02;;;;;;;;;;4432738;32;20208;-58
2022/06/22 09:51:43;;;;;;;15.13;10.18;;;;;;;;;;4433060;32;20291;-57
2022/06/22 09:57:29;;;;;;;14.98;11.85;;;;;;;;;;4432783;32;20239;-59
2022/06/22 09:59:57;;;;;;;25.27;9.80;;;;;;;;;;4433242;32;20526;-58
2022/06/22 10:02:58;;;;;;;14.87;8.85;;;;;;;;;;4433133;32;20246;-59
2022/06/22 10:05:58;;;;;;;21.05;10.38;;;;;;;;;;4431174;32;20284;-58
2022/06/22 10:08:39;;;;;;;17.55;9.30;;;;;;;;;;4433263;32;20213;-58
2022/06/22 10:11:07;;;;;;;15.80;10.52;;;;;;;;;;4442643;32;20271;-59
2022/06/22 10:13:48;;;;;;;12.60;9.90;;;;;;;;;;4442986;32;20639;-58
2022/06/22 10:16:32;;;;;;;14.77;10.18;;;;;;;;;;4431143;32;20259;-58
2022/06/22 10:19:22;;;;;;;13.85;9.38;;;;;;;;;;4430930;32;20599;-58
2022/06/22 10:21:50;;;;;;;10.88;8.52;;;;;;;;;;4432287;32;20634;-58
2022/06/22 10:24:30;;;;;;;12.85;8.73;;;;;;;;;;4433399;32;20246;-58
2022/06/22 10:27:05;;;;;;;15.55;9.38;;;;;;;;;;4432885;32;20355;-58
2022/06/22 10:30:01;;;;;;;16.90;8.45;;;;;;;;;;4432774;32;20213;-58
2022/06/22 10:32:57;;;;;;;13.25;8.93;;;;;;;;;;4432779;32;20732;-58
2022/06/22 10:35:22;;;;;;;17.00;8.35;;;;;;;;;;4432911;32;20319;-59
2022/06/22 10:37:59;;;;;;;17.37;9.25;;;;;;;;;;4444494;32;20397;-59
2022/06/22 10:46:45;;;;;;;13.68;8.55;;;;;;;;;;4435598;32;20263;-59
2022/06/22 10:49:38;;;;;;;18.00;8.93;;;;;;;;;;4435676;32;20220;-60
2022/06/22 10:52:31;;;;;;;20.33;10.30;;;;;;;;;;4439690;32;20262;-60
2022/06/22 10:55:05;;;;;;;12.93;8.70;;;;;;;;;;4449733;32;20690;-59
2022/06/22 10:57:38;;;;;;;14.70;8.10;;;;;;;;;;4449433;32;20297;-59
2022/06/22 11:00:14;;;;;;;15.93;8.50;;;;;;;;;;4449097;32;20428;-60
2022/06/22 11:02:48;;;;;;;22.70;8.77;;;;;;;;;;4448773;32;20245;-59
2022/06/22 11:05:46;;;;;;;21.15;8.13;;;;;;;;;;4449828;32;20255;-61
2022/06/22 11:08:39;;;;;;;15.02;8.45;;;;;;;;;;4449163;32;20640;-60
2022/06/22 11:11:08;;;;;;;14.60;9.38;;;;;;;;;;4447502;32;20419;-59
2022/06/22 11:13:39;;;;;;;22.48;9.57;;;;;;;;;;4449324;32;20208;-59
2022/06/22 11:16:46;;;;;;;11.20;7.60;;;;;;;;;;4449015;32;20219;-60
2022/06/22 11:19:32;;;;;;;13.38;8.07;;;;;;;;;;4449131;32;20196;-59
2022/06/22 11:22:16;;;;;;;15.23;8.15;;;;;;;;;;4449014;32;20247;-59
2022/06/22 11:25:06;;;;;;;13.68;8.32;;;;;;;;;;4449588;32;20231;-59
2022/06/22 11:31:06;;;;;;;16.23;7.30;;;;;;;;;;4449313;32;20328;-60
2022/06/22 11:33:53;;;;;;;13.70;8.02;;;;;;;;;;4449511;32;20200;-59
2022/06/22 11:36:27;;;;;;;19.90;7.95;;;;;;;;;;4449390;32;20323;-60
2022/06/22 11:39:18;;;;;;;15.50;8.48;;;;;;;;;;4449523;32;20691;-60
2022/06/22 11:41:59;;;;;;;13.43;8.55;;;;;;;;;;4449489;32;20280;-60
2022/06/22 11:44:33;;;;;;;19.40;8.48;;;;;;;;;;4449033;32;20287;-60
2022/06/22 11:47:18;;;;;;;26.45;8.93;;;;;;;;;;4449051;32;20258;-59
2022/06/22 11:49:55;;;;;;;29.08;9.18;;;;;;;;;;4449638;32;20436;-60
2022/06/22 11:52:34;;;;;;;20.00;8.43;;;;;;;;;;4444930;32;20330;-60
2022/06/22 11:55:23;;;;;;;12.88;8.90;;;;;;;;;;4434242;32;20229;-59
2022/06/22 11:58:25;;;;;;;15.25;9.82;;;;;;;;;;4449171;32;20237;-60
2022/06/22 12:01:17;;;;;;;20.08;9.27;;;;;;;;;;4448854;32;20697;-58
2022/06/22 12:03:45;;;;;;;19.77;8.50;;;;;;;;;;4449210;32;20275;-59
2022/06/22 12:06:18;;;;;;;14.57;7.20;;;;;;;;;;4448648;32;20276;-59
2022/06/22 12:08:59;;;;;;;15.40;7.43;;;;;;;;;;4448595;32;20293;-59
2022/06/22 12:12:04;;;;;;;13.23;7.90;;;;;;;;;;4449023;32;20234;-59
2022/06/22 12:17:26;;;;;;;17.83;8.57;;;;;;;;;;4448294;32;20820;-60
2022/06/22 12:20:00;;;;;;;13.90;8.43;;;;;;;;;;4449011;32;20208;-60
2022/06/22 12:22:47;;;;;;;16.15;10.65;;;;;;;;;;4448920;32;20323;-59
2022/06/22 12:25:37;;;;;;;13.55;8.98;;;;;;;;;;4449260;32;20229;-58
2022/06/22 12:28:35;;;;;;;17.35;8.60;;;;;;;;;;4448878;32;20285;-59
2022/06/22 12:31:19;;;;;;;20.70;8.38;;;;;;;;;;4413861;32;20362;-59
2022/06/22 12:34:02;;;;;;;14.68;8.50;;;;;;;;;;4449186;32;20196;-58
2022/06/22 12:36:37;;;;;;;26.60;10.27;;;;;;;;;;4448734;32;20228;-58
2022/06/22 12:39:16;;;;;;;15.18;8.48;;;;;;;;;;4449121;32;20249;-59
2022/06/22 12:42:00;;;;;;;18.92;8.18;;;;;;;;;;4449132;32;20262;-58
2022/06/22 12:45:17;;;;;;;18.02;9.30;;;;;;;;;;4448716;32;20570;-57
2022/06/22 12:47:57;;;;;;;15.00;8.18;;;;;;;;;;4433721;32;20600;-58
2022/06/22 12:50:44;;;;;;;19.70;9.07;;;;;;;;;;4448968;32;20200;-58
2022/06/22 12:53:27;;;;;;;22.35;8.68;;;;;;;;;;4448683;32;20252;-59
2022/06/22 12:56:08;;;;;;;17.10;7.82;;;;;;;;;;4448576;32;20740;-58
2022/06/22 12:58:45;;;;;;;13.80;7.20;;;;;;;;;;4448282;32;20260;-58
2022/06/22 13:01:11;;;;;;;12.88;7.20;;;;;;;;;;4434922;32;20304;-59
2022/06/22 13:03:47;;;;;;;12.63;6.93;;;;;;;;;;4448228;32;20367;-58
2022/06/22 13:06:12;;;;;;;17.33;7.68;;;;;;;;;;4448064;32;20213;-59
2022/06/22 13:08:38;;;;;;;19.58;7.97;;;;;;;;;;4447223;32;20249;-58
2022/06/22 13:11:17;;;;;;;8.65;6.37;;;;;;;;;;4447961;32;20217;-59
2022/06/22 13:14:09;;;;;;;12.80;6.93;;;;;;;;;;4448250;32;20672;-59
2022/06/22 13:16:44;;;;;;;10.90;6.55;;;;;;;;;;4447621;32;20212;-60
2022/06/22 13:19:35;;;;;;;10.88;7.28;;;;;;;;;;4448066;32;20219;-59
2022/06/22 13:22:18;;;;;;;18.45;7.43;;;;;;;;;;4436849;32;20339;-59
2022/06/22 13:25:09;;;;;;;11.07;6.20;;;;;;;;;;4448076;32;20224;-60
2022/06/22 13:27:55;;;;;;;10.13;5.68;;;;;;;;;;4447620;32;20304;-59
2022/06/22 13:30:32;;;;;;;16.65;5.25;;;;;;;;;;4447637;32;20358;-59
2022/06/22 13:33:25;;;;;;;18.05;5.82;;;;;;;;;;4447965;32;20239;-59
2022/06/22 13:36:00;;;;;;;16.65;6.37;;;;;;;;;;4447669;32;20291;-59
2022/06/22 13:39:00;;;;;;;19.35;5.53;;;;;;;;;;4441536;32;20311;-59
2022/06/22 13:42:09;;;;;;;16.90;5.70;;;;;;;;;;4446811;32;20361;-60
2022/06/22 13:44:45;;;;;;;13.95;6.47;;;;;;;;;;4430717;32;20256;-60
2022/06/22 13:47:24;;;;;;;14.02;5.22;;;;;;;;;;4446769;32;20759;-59
2022/06/22 13:50:02;;;;;;;18.58;5.45;;;;;;;;;;4447161;32;20201;-58
2022/06/22 13:52:34;;;;;;;11.57;5.25;;;;;;;;;;4446941;32;20250;-60
2022/06/22 13:55:21;;;;;;;11.10;4.72;;;;;;;;;;4447589;32;20189;-58
2022/06/22 13:57:49;;;;;;;10.95;6.10;;;;;;;;;;4447180;32;20291;-59
2022/06/22 14:00:43;;;;;;;11.63;6.18;;;;;;;;;;4447144;32;20295;-59
2022/06/22 14:03:17;;;;;;;14.70;5.78;;;;;;;;;;4433757;32;20270;-59
2022/06/22 14:05:46;;;;;;;17.33;6.62;;;;;;;;;;4447740;32;20217;-60
2022/06/22 14:08:27;;;;;;;16.42;6.07;;;;;;;;;;4447301;32;20309;-60
2022/06/22 14:11:07;;;;;;;12.82;5.37;;;;;;;;;;4447972;32;20196;-58
2022/06/22 14:13:47;;;;;;;15.90;5.45;;;;;;;;;;4447939;32;20279;-59
2022/06/22 14:16:33;;;;;;;7.72;5.55;;;;;;;;;;4447489;32;20307;-58
2022/06/22 14:19:09;;;;;;;10.75;5.57;;;;;;;;;;4447310;32;20388;-59
2022/06/22 14:21:48;;;;;;;19.95;6.87;;;;;;;;;;4447906;32;20221;-59
2022/06/22 14:24:42;;;;;;;18.25;6.75;;;;;;;;;;4447387;32;20205;-59
2022/06/22 14:27:31;;;;;;;14.52;6.25;;;;;;;;;;4447251;32;20867;-59
2022/06/22 14:30:46;;;;;;;16.48;6.25;;;;;;;;;;4447137;32;20260;-59
2022/06/22 14:34:01;;;;;;;17.85;5.50;;;;;;;;;;4411211;32;20551;-60
2022/06/22 14:36:36;;;;;;;16.33;6.57;;;;;;;;;;4446952;32;20694;-59
2022/06/22 14:39:12;;;;;;;15.05;7.03;;;;;;;;;;4437538;32;20372;-59
2022/06/22 14:41:52;;;;;;;10.18;6.40;;;;;;;;;;4447128;32;20580;-59
2022/06/22 14:44:26;;;;;;;11.80;6.20;;;;;;;;;;4447092;32;20236;-59
2022/06/22 14:47:16;;;;;;;20.30;6.55;;;;;;;;;;4440579;32;20391;-59
2022/06/22 14:50:07;;;;;;;24.27;6.18;;;;;;;;;;4446963;32;20536;-59
2022/06/22 14:52:55;;;;;;;15.63;7.05;;;;;;;;;;4446862;32;20217;-60
2022/06/22 14:55:59;;;;;;;12.95;7.35;;;;;;;;;;4447169;32;20227;-60
2022/06/22 14:59:07;;;;;;;15.30;6.65;;;;;;;;;;4412350;32;20292;-60
2022/06/22 15:01:39;;;;;;;12.20;6.68;;;;;;;;;;4413788;32;20326;-58
2022/06/22 15:04:44;;;;;;;14.18;6.70;;;;;;;;;;4447420;32;20230;-59
2022/06/22 15:07:24;;;;;;;21.15;7.68;;;;;;;;;;4446973;32;20538;-59
2022/06/22 15:09:57;;;;;;;19.85;7.43;;;;;;;;;;4447174;32;20544;-58
2022/06/22 15:15:20;;;;;;;16.55;7.43;;;;;;;;;;4445640;32;20280;-59
2022/06/22 15:18:11;;;;;;;12.85;6.90;;;;;;;;;;4445600;32;20326;-59
2022/06/22 15:20:36;;;;;;;15.57;6.07;;;;;;;;;;4445972;32;20395;-58
2022/06/22 15:23:14;;;;;;;11.07;6.05;;;;;;;;;;4437884;32;20397;-59
2022/06/22 15:26:05;;;;;;;10.32;6.00;;;;;;;;;;4446551;32;20275;-60
2022/06/22 15:28:39;;;;;;;17.60;5.07;;;;;;;;;;4447903;32;20308;-59
2022/06/22 15:31:14;;;;;;;10.85;4.87;;;;;;;;;;4448935;32;20360;-59
2022/06/22 15:33:49;;;;;;;12.73;6.47;;;;;;;;;;4450747;32;20223;-59
2022/06/22 15:36:27;;;;;;;17.40;4.78;;;;;;;;;;4449366;32;20407;-60
2022/06/22 15:39:00;;;;;;;14.95;5.22;;;;;;;;;;4450295;32;20224;-58
2022/06/22 15:41:30;;;;;;;15.57;5.37;;;;;;;;;;4450064;32;20287;-58
2022/06/22 15:44:14;;;;;;;16.60;4.93;;;;;;;;;;4450507;32;20280;-59
2022/06/22 15:46:54;;;;;;;11.98;5.93;;;;;;;;;;4450313;32;20220;-58
2022/06/22 15:49:38;;;;;;;20.67;5.35;;;;;;;;;;4450732;32;20212;-58
2022/06/22 15:52:23;;;;;;;10.38;5.15;;;;;;;;;;4450605;32;20311;-59
2022/06/22 15:55:10;;;;;;;17.62;6.10;;;;;;;;;;4448928;32;20225;-59
2022/06/22 15:57:52;;;;;;;14.82;5.82;;;;;;;;;;4447279;32;20314;-57
2022/06/22 16:00:36;;;;;;;20.45;8.82;;;;;;;;;;4446548;32;20343;-59
2022/06/22 16:03:17;;;;;;;15.35;5.87;;;;;;;;;;4446903;32;20687;-58